Etusivu
METAR-TAF:

METAR-TAF

Lentoasemat :

Dutchess County Airport

Poughkeepsie, New York, Yhdysvallat

Leveyspiiri: 41-37-36N, Pituuspiiri: 073-53-03W, korkeus merenpinnasta: 50 m

Tämänhetkinen sää

Tämä raportti tehtiin 54 minuuttia sitten, kello 00.53 UTC
tyyntä
Lämpötila 0°C
Kosteus 55%
Ilmanpaine 1022 hPa
Näkyvyys: 16.1 km
selkeää

METAR: KPOU 230053Z 00000KT 10SM CLR 00/M08 A3018 RMK AO2 SLP219 T00001083

Aika: 20:47 (01:47 UTC)

Sääennuste

Tämä raportti tehtiin 2 tuntia ja 16 minuuttia sitten, kello 23.31 UTC
Ennuste voimassa 23. päivästä klo 00 UTC - 23. päivään klo 24 UTC
Tuuli 9 kn lännestä
Näkyvyys: 10 km
selkeää
From 23. päivästä klo 0600 UTC
Tuuli 3 kn etelästä
Näkyvyys: 10 km
Muutamia pilviä 25000 ft:n korkeudessa
From 23. päivästä klo 1500 UTC
Tuuli 6 kn lounaasta
Näkyvyys: 10 km
selkeää

TAF: KPOU 222331Z 2300/2324 27009KT P6SM SKC FM230600 17003KT P6SM FEW250 FM231500 23006KT P6SM SKC

Säähavainnot ja -ennusteet yli 4000 lentoasemalta (METAR- ja TAF-raportit).

Käytössä olevat sääasemat on merkitty karttaan keltaisilla ja punaisilla pisteillä.

Aseta hiiri pisteen päälle nähdäksesi sääaseman nimen.

Klikkaa sitten nähdäksesi säähavainnot ja -ennusteet.

Kartan vaihtaminen: klikkaa mustalla rastilla varustettuja vihreitä pisteitä, niin voit zoomata sisään; viivalla varustettua vihreää pistettä, niin voit zoomata ulos tai vihreitä nuolia, niin pääset viereisille kartoille.


METAR-TAF: